sensor_id;sensor_type;location;lat;lon;timestamp;P1;durP1;ratioP1;P2;durP2;ratioP2
291;SDS011;23311;48.776;9.162;2022-08-18T00:01:09;7.00;;;6.60;;
291;SDS011;23311;48.776;9.162;2022-08-18T00:03:42;6.07;;;5.77;;
291;SDS011;23311;48.776;9.162;2022-08-18T00:06:33;6.73;;;6.33;;
291;SDS011;23311;48.776;9.162;2022-08-18T00:09:05;7.63;;;7.23;;
291;SDS011;23311;48.776;9.162;2022-08-18T00:11:37;6.77;;;6.37;;
291;SDS011;23311;48.776;9.162;2022-08-18T00:14:08;6.80;;;6.40;;
291;SDS011;23311;48.776;9.162;2022-08-18T00:16:47;5.70;;;5.40;;
291;SDS011;23311;48.776;9.162;2022-08-18T00:19:16;7.07;;;6.13;;
291;SDS011;23311;48.776;9.162;2022-08-18T00:21:44;7.17;;;6.77;;
291;SDS011;23311;48.776;9.162;2022-08-18T00:24:13;7.17;;;6.77;;
291;SDS011;23311;48.776;9.162;2022-08-18T00:26:41;6.30;;;6.00;;
291;SDS011;23311;48.776;9.162;2022-08-18T00:29:14;6.13;;;5.83;;
291;SDS011;23311;48.776;9.162;2022-08-18T00:31:42;6.13;;;5.83;;
291;SDS011;23311;48.776;9.162;2022-08-18T00:34:10;6.20;;;5.87;;
291;SDS011;23311;48.776;9.162;2022-08-18T00:36:38;7.57;;;7.17;;
291;SDS011;23311;48.776;9.162;2022-08-18T00:39:06;6.50;;;6.10;;
291;SDS011;23311;48.776;9.162;2022-08-18T00:41:35;6.83;;;6.43;;
291;SDS011;23311;48.776;9.162;2022-08-18T00:44:04;6.13;;;5.83;;
291;SDS011;23311;48.776;9.162;2022-08-18T00:46:33;6.60;;;6.20;;
291;SDS011;23311;48.776;9.162;2022-08-18T00:49:02;7.27;;;6.87;;
291;SDS011;23311;48.776;9.162;2022-08-18T00:51:32;7.30;;;6.50;;
291;SDS011;23311;48.776;9.162;2022-08-18T00:54:08;6.53;;;6.13;;
291;SDS011;23311;48.776;9.162;2022-08-18T00:56:47;6.10;;;5.80;;
291;SDS011;23311;48.776;9.162;2022-08-18T00:59:19;5.80;;;5.50;;
291;SDS011;23311;48.776;9.162;2022-08-18T01:01:51;6.33;;;5.97;;
291;SDS011;23311;48.776;9.162;2022-08-18T01:04:22;5.60;;;5.30;;
291;SDS011;23311;48.776;9.162;2022-08-18T01:06:54;6.70;;;6.30;;
291;SDS011;23311;48.776;9.162;2022-08-18T01:09:27;6.27;;;5.93;;
291;SDS011;23311;48.776;9.162;2022-08-18T01:11:57;6.53;;;6.17;;
291;SDS011;23311;48.776;9.162;2022-08-18T01:14:25;6.17;;;5.87;;
291;SDS011;23311;48.776;9.162;2022-08-18T01:16:53;6.27;;;5.93;;
291;SDS011;23311;48.776;9.162;2022-08-18T01:19:39;6.67;;;6.27;;
291;SDS011;23311;48.776;9.162;2022-08-18T01:22:26;5.80;;;5.50;;
291;SDS011;23311;48.776;9.162;2022-08-18T01:24:59;5.50;;;5.20;;
291;SDS011;23311;48.776;9.162;2022-08-18T01:27:48;6.07;;;5.77;;
291;SDS011;23311;48.776;9.162;2022-08-18T01:30:18;6.03;;;5.73;;
291;SDS011;23311;48.776;9.162;2022-08-18T01:32:47;6.10;;;5.80;;
291;SDS011;23311;48.776;9.162;2022-08-18T01:35:18;5.60;;;5.30;;
291;SDS011;23311;48.776;9.162;2022-08-18T01:37:51;6.60;;;6.20;;
291;SDS011;23311;48.776;9.162;2022-08-18T01:40:21;5.67;;;5.37;;
291;SDS011;23311;48.776;9.162;2022-08-18T01:43:10;5.60;;;5.30;;
291;SDS011;23311;48.776;9.162;2022-08-18T01:45:38;6.27;;;5.93;;
291;SDS011;23311;48.776;9.162;2022-08-18T01:48:07;5.87;;;5.57;;
291;SDS011;23311;48.776;9.162;2022-08-18T01:50:36;5.50;;;5.20;;
291;SDS011;23311;48.776;9.162;2022-08-18T01:53:05;5.60;;;5.30;;
291;SDS011;23311;48.776;9.162;2022-08-18T01:55:36;5.93;;;5.60;;
291;SDS011;23311;48.776;9.162;2022-08-18T01:58:10;6.00;;;5.70;;
291;SDS011;23311;48.776;9.162;2022-08-18T02:00:38;6.60;;;6.20;;
291;SDS011;23311;48.776;9.162;2022-08-18T02:03:08;6.43;;;5.10;;
291;SDS011;23311;48.776;9.162;2022-08-18T02:05:40;6.97;;;6.57;;
291;SDS011;23311;48.776;9.162;2022-08-18T02:08:12;5.90;;;5.60;;
291;SDS011;23311;48.776;9.162;2022-08-18T02:10:42;6.20;;;5.87;;
291;SDS011;23311;48.776;9.162;2022-08-18T02:13:10;6.77;;;6.37;;
291;SDS011;23311;48.776;9.162;2022-08-18T02:15:38;6.70;;;6.30;;
291;SDS011;23311;48.776;9.162;2022-08-18T02:18:11;5.67;;;5.37;;
291;SDS011;23311;48.776;9.162;2022-08-18T02:21:04;5.43;;;5.13;;
291;SDS011;23311;48.776;9.162;2022-08-18T02:23:36;6.60;;;6.20;;
291;SDS011;23311;48.776;9.162;2022-08-18T02:26:07;5.80;;;5.50;;
291;SDS011;23311;48.776;9.162;2022-08-18T02:28:37;6.20;;;5.90;;
291;SDS011;23311;48.776;9.162;2022-08-18T02:31:06;5.87;;;5.57;;
291;SDS011;23311;48.776;9.162;2022-08-18T02:33:37;6.20;;;5.77;;
291;SDS011;23311;48.776;9.162;2022-08-18T02:36:12;5.70;;;5.40;;
291;SDS011;23311;48.776;9.162;2022-08-18T02:38:40;6.60;;;6.20;;
291;SDS011;23311;48.776;9.162;2022-08-18T02:41:21;6.83;;;5.23;;
291;SDS011;23311;48.776;9.162;2022-08-18T02:43:54;6.20;;;5.90;;
291;SDS011;23311;48.776;9.162;2022-08-18T02:46:23;6.10;;;5.80;;
291;SDS011;23311;48.776;9.162;2022-08-18T02:48:56;5.60;;;5.30;;
291;SDS011;23311;48.776;9.162;2022-08-18T02:51:25;5.97;;;5.67;;
291;SDS011;23311;48.776;9.162;2022-08-18T02:53:53;5.90;;;5.60;;
291;SDS011;23311;48.776;9.162;2022-08-18T02:56:26;7.03;;;6.63;;
291;SDS011;23311;48.776;9.162;2022-08-18T02:59:07;6.50;;;6.10;;
291;SDS011;23311;48.776;9.162;2022-08-18T03:01:38;6.80;;;6.40;;
291;SDS011;23311;48.776;9.162;2022-08-18T03:04:10;6.27;;;5.93;;
291;SDS011;23311;48.776;9.162;2022-08-18T03:06:40;6.47;;;6.07;;
291;SDS011;23311;48.776;9.162;2022-08-18T03:09:11;6.60;;;6.20;;
291;SDS011;23311;48.776;9.162;2022-08-18T03:11:41;7.00;;;6.60;;
291;SDS011;23311;48.776;9.162;2022-08-18T03:14:10;6.87;;;6.30;;
291;SDS011;23311;48.776;9.162;2022-08-18T03:16:40;6.80;;;6.37;;
291;SDS011;23311;48.776;9.162;2022-08-18T03:19:19;6.80;;;6.40;;
291;SDS011;23311;48.776;9.162;2022-08-18T03:21:48;7.00;;;6.60;;
291;SDS011;23311;48.776;9.162;2022-08-18T03:24:18;6.20;;;5.90;;
291;SDS011;23311;48.776;9.162;2022-08-18T03:26:51;7.00;;;6.60;;
291;SDS011;23311;48.776;9.162;2022-08-18T03:29:20;6.77;;;6.37;;
291;SDS011;23311;48.776;9.162;2022-08-18T03:31:57;7.10;;;6.70;;
291;SDS011;23311;48.776;9.162;2022-08-18T03:34:25;5.97;;;5.67;;
291;SDS011;23311;48.776;9.162;2022-08-18T03:36:53;6.83;;;6.43;;
291;SDS011;23311;48.776;9.162;2022-08-18T03:39:21;6.00;;;5.70;;
291;SDS011;23311;48.776;9.162;2022-08-18T03:41:52;6.77;;;6.37;;
291;SDS011;23311;48.776;9.162;2022-08-18T03:44:26;6.50;;;6.10;;
291;SDS011;23311;48.776;9.162;2022-08-18T03:46:56;6.57;;;6.17;;
291;SDS011;23311;48.776;9.162;2022-08-18T03:49:26;7.77;;;7.37;;
291;SDS011;23311;48.776;9.162;2022-08-18T03:51:54;6.80;;;6.40;;
291;SDS011;23311;48.776;9.162;2022-08-18T03:54:25;6.50;;;6.10;;
291;SDS011;23311;48.776;9.162;2022-08-18T03:56:55;7.10;;;6.70;;
291;SDS011;23311;48.776;9.162;2022-08-18T03:59:24;7.03;;;6.63;;
291;SDS011;23311;48.776;9.162;2022-08-18T04:01:53;7.77;;;7.37;;
291;SDS011;23311;48.776;9.162;2022-08-18T04:04:22;6.73;;;6.33;;
291;SDS011;23311;48.776;9.162;2022-08-18T04:06:54;7.03;;;6.63;;
291;SDS011;23311;48.776;9.162;2022-08-18T04:09:24;7.70;;;7.30;;
291;SDS011;23311;48.776;9.162;2022-08-18T04:11:56;8.13;;;7.73;;
291;SDS011;23311;48.776;9.162;2022-08-18T04:14:25;8.10;;;7.70;;
291;SDS011;23311;48.776;9.162;2022-08-18T04:16:55;7.03;;;6.63;;
291;SDS011;23311;48.776;9.162;2022-08-18T04:19:24;6.50;;;6.10;;
291;SDS011;23311;48.776;9.162;2022-08-18T04:21:54;7.30;;;6.90;;
291;SDS011;23311;48.776;9.162;2022-08-18T04:24:24;7.40;;;7.00;;
291;SDS011;23311;48.776;9.162;2022-08-18T04:27:00;6.67;;;6.23;;
291;SDS011;23311;48.776;9.162;2022-08-18T04:29:30;7.57;;;7.17;;
291;SDS011;23311;48.776;9.162;2022-08-18T04:31:59;7.30;;;6.90;;
291;SDS011;23311;48.776;9.162;2022-08-18T04:34:30;7.40;;;7.00;;
291;SDS011;23311;48.776;9.162;2022-08-18T04:36:59;7.00;;;6.60;;
291;SDS011;23311;48.776;9.162;2022-08-18T04:39:28;6.90;;;6.50;;
291;SDS011;23311;48.776;9.162;2022-08-18T04:41:57;6.77;;;6.37;;
291;SDS011;23311;48.776;9.162;2022-08-18T04:44:28;6.73;;;6.33;;
291;SDS011;23311;48.776;9.162;2022-08-18T04:46:57;7.93;;;7.53;;
291;SDS011;23311;48.776;9.162;2022-08-18T04:49:27;7.10;;;6.70;;
291;SDS011;23311;48.776;9.162;2022-08-18T04:51:57;6.63;;;6.27;;
291;SDS011;23311;48.776;9.162;2022-08-18T04:55:03;6.83;;;6.43;;
291;SDS011;23311;48.776;9.162;2022-08-18T04:57:34;6.83;;;6.43;;
291;SDS011;23311;48.776;9.162;2022-08-18T05:00:03;7.37;;;6.97;;
291;SDS011;23311;48.776;9.162;2022-08-18T05:02:33;6.90;;;6.50;;
291;SDS011;23311;48.776;9.162;2022-08-18T05:05:01;6.27;;;5.93;;
291;SDS011;23311;48.776;9.162;2022-08-18T05:07:30;7.20;;;6.80;;
291;SDS011;23311;48.776;9.162;2022-08-18T05:09:58;6.70;;;6.30;;
291;SDS011;23311;48.776;9.162;2022-08-18T05:12:27;7.10;;;6.70;;
291;SDS011;23311;48.776;9.162;2022-08-18T05:14:56;7.10;;;6.70;;
291;SDS011;23311;48.776;9.162;2022-08-18T05:17:24;6.90;;;6.50;;
291;SDS011;23311;48.776;9.162;2022-08-18T05:19:56;8.30;;;7.17;;
291;SDS011;23311;48.776;9.162;2022-08-18T05:22:27;7.33;;;6.93;;
291;SDS011;23311;48.776;9.162;2022-08-18T05:24:56;7.20;;;6.80;;
291;SDS011;23311;48.776;9.162;2022-08-18T05:27:29;6.27;;;5.83;;
291;SDS011;23311;48.776;9.162;2022-08-18T05:29:59;7.03;;;6.63;;
291;SDS011;23311;48.776;9.162;2022-08-18T05:32:27;6.77;;;6.37;;
291;SDS011;23311;48.776;9.162;2022-08-18T05:35:15;6.60;;;6.20;;
291;SDS011;23311;48.776;9.162;2022-08-18T05:37:50;7.07;;;6.67;;
291;SDS011;23311;48.776;9.162;2022-08-18T05:40:33;7.00;;;6.60;;
291;SDS011;23311;48.776;9.162;2022-08-18T05:43:02;7.43;;;7.03;;
291;SDS011;23311;48.776;9.162;2022-08-18T05:45:34;6.90;;;6.50;;
291;SDS011;23311;48.776;9.162;2022-08-18T05:48:02;6.93;;;6.53;;
291;SDS011;23311;48.776;9.162;2022-08-18T05:50:31;8.60;;;8.10;;
291;SDS011;23311;48.776;9.162;2022-08-18T05:53:03;7.60;;;7.20;;
291;SDS011;23311;48.776;9.162;2022-08-18T05:55:41;7.80;;;7.40;;
291;SDS011;23311;48.776;9.162;2022-08-18T05:58:37;6.67;;;6.27;;
291;SDS011;23311;48.776;9.162;2022-08-18T06:01:10;6.83;;;6.43;;
291;SDS011;23311;48.776;9.162;2022-08-18T06:03:44;6.60;;;6.20;;
291;SDS011;23311;48.776;9.162;2022-08-18T06:06:16;6.63;;;6.13;;
291;SDS011;23311;48.776;9.162;2022-08-18T06:08:48;6.83;;;6.43;;
291;SDS011;23311;48.776;9.162;2022-08-18T06:11:23;6.77;;;6.37;;
291;SDS011;23311;48.776;9.162;2022-08-18T06:13:52;8.07;;;6.83;;
291;SDS011;23311;48.776;9.162;2022-08-18T06:16:35;6.70;;;6.30;;
291;SDS011;23311;48.776;9.162;2022-08-18T06:19:17;7.87;;;7.47;;
291;SDS011;23311;48.776;9.162;2022-08-18T06:22:02;7.17;;;6.77;;
291;SDS011;23311;48.776;9.162;2022-08-18T06:24:40;6.97;;;6.57;;
291;SDS011;23311;48.776;9.162;2022-08-18T06:27:16;7.37;;;6.97;;
291;SDS011;23311;48.776;9.162;2022-08-18T06:29:56;7.10;;;6.70;;
291;SDS011;23311;48.776;9.162;2022-08-18T06:32:38;7.07;;;6.67;;
291;SDS011;23311;48.776;9.162;2022-08-18T06:35:22;7.00;;;6.60;;
291;SDS011;23311;48.776;9.162;2022-08-18T06:38:00;7.27;;;6.87;;
291;SDS011;23311;48.776;9.162;2022-08-18T06:40:59;7.37;;;6.40;;
291;SDS011;23311;48.776;9.162;2022-08-18T06:43:28;7.47;;;7.07;;
291;SDS011;23311;48.776;9.162;2022-08-18T06:45:59;7.80;;;7.40;;
291;SDS011;23311;48.776;9.162;2022-08-18T06:48:36;6.37;;;6.00;;
291;SDS011;23311;48.776;9.162;2022-08-18T06:51:11;7.40;;;7.00;;
291;SDS011;23311;48.776;9.162;2022-08-18T06:53:48;7.10;;;6.70;;
291;SDS011;23311;48.776;9.162;2022-08-18T06:56:23;7.80;;;7.40;;
291;SDS011;23311;48.776;9.162;2022-08-18T06:58:54;7.10;;;6.70;;
291;SDS011;23311;48.776;9.162;2022-08-18T07:01:39;7.93;;;7.53;;
291;SDS011;23311;48.776;9.162;2022-08-18T07:04:09;7.37;;;6.97;;
291;SDS011;23311;48.776;9.162;2022-08-18T07:06:58;6.87;;;6.47;;
291;SDS011;23311;48.776;9.162;2022-08-18T07:09:38;7.33;;;6.93;;
291;SDS011;23311;48.776;9.162;2022-08-18T07:12:07;5.83;;;5.53;;
291;SDS011;23311;48.776;9.162;2022-08-18T07:14:43;6.83;;;6.43;;
291;SDS011;23311;48.776;9.162;2022-08-18T07:17:18;6.63;;;6.23;;
291;SDS011;23311;48.776;9.162;2022-08-18T07:20:16;6.13;;;5.83;;
291;SDS011;23311;48.776;9.162;2022-08-18T07:22:53;6.80;;;6.40;;
291;SDS011;23311;48.776;9.162;2022-08-18T07:25:26;6.20;;;5.90;;
291;SDS011;23311;48.776;9.162;2022-08-18T07:27:57;5.67;;;5.37;;
291;SDS011;23311;48.776;9.162;2022-08-18T07:30:29;6.53;;;6.13;;
291;SDS011;23311;48.776;9.162;2022-08-18T07:33:04;7.27;;;6.47;;
291;SDS011;23311;48.776;9.162;2022-08-18T07:35:41;5.60;;;5.30;;
291;SDS011;23311;48.776;9.162;2022-08-18T07:38:16;7.10;;;6.70;;
291;SDS011;23311;48.776;9.162;2022-08-18T07:41:10;6.60;;;6.20;;
291;SDS011;23311;48.776;9.162;2022-08-18T07:43:43;5.83;;;5.53;;
291;SDS011;23311;48.776;9.162;2022-08-18T07:46:20;7.53;;;6.70;;
291;SDS011;23311;48.776;9.162;2022-08-18T07:48:54;6.80;;;6.40;;
291;SDS011;23311;48.776;9.162;2022-08-18T07:51:27;7.10;;;6.70;;
291;SDS011;23311;48.776;9.162;2022-08-18T07:54:13;6.83;;;6.43;;
291;SDS011;23311;48.776;9.162;2022-08-18T07:57:09;6.40;;;6.00;;
291;SDS011;23311;48.776;9.162;2022-08-18T07:59:49;7.40;;;7.00;;
291;SDS011;23311;48.776;9.162;2022-08-18T08:02:30;7.17;;;6.77;;
291;SDS011;23311;48.776;9.162;2022-08-18T08:05:08;6.40;;;6.00;;
291;SDS011;23311;48.776;9.162;2022-08-18T08:07:48;6.77;;;6.37;;
291;SDS011;23311;48.776;9.162;2022-08-18T08:10:26;7.70;;;7.30;;
291;SDS011;23311;48.776;9.162;2022-08-18T08:13:02;7.43;;;7.03;;
291;SDS011;23311;48.776;9.162;2022-08-18T08:15:40;7.30;;;6.90;;
291;SDS011;23311;48.776;9.162;2022-08-18T08:18:17;7.97;;;7.57;;
291;SDS011;23311;48.776;9.162;2022-08-18T08:20:51;6.40;;;6.03;;
291;SDS011;23311;48.776;9.162;2022-08-18T08:23:26;7.47;;;7.07;;
291;SDS011;23311;48.776;9.162;2022-08-18T08:26:19;6.73;;;6.33;;
291;SDS011;23311;48.776;9.162;2022-08-18T08:29:07;7.23;;;6.43;;
291;SDS011;23311;48.776;9.162;2022-08-18T08:31:44;7.93;;;7.03;;
291;SDS011;23311;48.776;9.162;2022-08-18T08:34:18;8.30;;;7.90;;
291;SDS011;23311;48.776;9.162;2022-08-18T08:36:52;9.47;;;6.97;;
291;SDS011;23311;48.776;9.162;2022-08-18T08:39:33;6.90;;;6.50;;
291;SDS011;23311;48.776;9.162;2022-08-18T08:42:07;7.20;;;6.80;;
291;SDS011;23311;48.776;9.162;2022-08-18T08:44:59;7.27;;;6.87;;
291;SDS011;23311;48.776;9.162;2022-08-18T08:50:44;7.83;;;7.07;;
291;SDS011;23311;48.776;9.162;2022-08-18T08:53:17;6.73;;;6.37;;
291;SDS011;23311;48.776;9.162;2022-08-18T08:55:51;8.07;;;7.67;;
291;SDS011;23311;48.776;9.162;2022-08-18T08:58:28;8.60;;;7.23;;
291;SDS011;23311;48.776;9.162;2022-08-18T09:01:02;7.10;;;6.70;;
291;SDS011;23311;48.776;9.162;2022-08-18T09:03:33;6.80;;;6.40;;
291;SDS011;23311;48.776;9.162;2022-08-18T09:06:15;7.47;;;6.70;;
291;SDS011;23311;48.776;9.162;2022-08-18T09:08:54;7.57;;;7.17;;
291;SDS011;23311;48.776;9.162;2022-08-18T09:14:52;6.83;;;6.43;;
291;SDS011;23311;48.776;9.162;2022-08-18T09:20:50;7.57;;;7.17;;
291;SDS011;23311;48.776;9.162;2022-08-18T09:23:25;7.00;;;6.60;;
291;SDS011;23311;48.776;9.162;2022-08-18T09:25:57;8.80;;;7.10;;
291;SDS011;23311;48.776;9.162;2022-08-18T09:28:51;7.10;;;6.70;;
291;SDS011;23311;48.776;9.162;2022-08-18T09:31:25;7.80;;;7.40;;
291;SDS011;23311;48.776;9.162;2022-08-18T09:34:01;7.40;;;7.00;;
291;SDS011;23311;48.776;9.162;2022-08-18T09:36:49;8.27;;;7.87;;
291;SDS011;23311;48.776;9.162;2022-08-18T09:39:33;8.03;;;7.63;;
291;SDS011;23311;48.776;9.162;2022-08-18T09:42:26;8.90;;;8.40;;
291;SDS011;23311;48.776;9.162;2022-08-18T09:48:25;7.40;;;7.00;;
291;SDS011;23311;48.776;9.162;2022-08-18T09:50:56;8.77;;;8.27;;
291;SDS011;23311;48.776;9.162;2022-08-18T09:59:54;7.73;;;7.33;;
291;SDS011;23311;48.776;9.162;2022-08-18T10:05:37;8.33;;;7.90;;
291;SDS011;23311;48.776;9.162;2022-08-18T10:11:16;8.03;;;7.63;;
291;SDS011;23311;48.776;9.162;2022-08-18T10:13:57;8.37;;;7.93;;
291;SDS011;23311;48.776;9.162;2022-08-18T10:16:41;7.73;;;7.33;;
291;SDS011;23311;48.776;9.162;2022-08-18T10:19:36;8.03;;;7.63;;
291;SDS011;23311;48.776;9.162;2022-08-18T10:25:02;9.37;;;8.87;;
291;SDS011;23311;48.776;9.162;2022-08-18T10:27:51;8.23;;;7.83;;
291;SDS011;23311;48.776;9.162;2022-08-18T10:33:53;9.73;;;9.23;;
291;SDS011;23311;48.776;9.162;2022-08-18T10:36:44;9.50;;;9.00;;
291;SDS011;23311;48.776;9.162;2022-08-18T10:39:20;10.63;;;10.03;;
291;SDS011;23311;48.776;9.162;2022-08-18T10:41:57;9.07;;;8.57;;
291;SDS011;23311;48.776;9.162;2022-08-18T10:44:30;8.60;;;8.10;;
291;SDS011;23311;48.776;9.162;2022-08-18T10:47:02;10.80;;;10.20;;
291;SDS011;23311;48.776;9.162;2022-08-18T10:49:37;10.97;;;10.37;;
291;SDS011;23311;48.776;9.162;2022-08-18T10:52:19;10.57;;;10.00;;
291;SDS011;23311;48.776;9.162;2022-08-18T10:55:20;9.27;;;8.77;;
291;SDS011;23311;48.776;9.162;2022-08-18T11:01:17;10.07;;;9.57;;
291;SDS011;23311;48.776;9.162;2022-08-18T11:04:04;8.83;;;8.33;;
291;SDS011;23311;48.776;9.162;2022-08-18T11:06:57;10.30;;;9.80;;
291;SDS011;23311;48.776;9.162;2022-08-18T11:09:35;8.90;;;8.40;;
291;SDS011;23311;48.776;9.162;2022-08-18T11:12:09;9.07;;;8.57;;
291;SDS011;23311;48.776;9.162;2022-08-18T11:14:48;9.73;;;9.23;;
291;SDS011;23311;48.776;9.162;2022-08-18T11:17:29;9.40;;;8.90;;
291;SDS011;23311;48.776;9.162;2022-08-18T11:20:08;9.70;;;8.83;;
291;SDS011;23311;48.776;9.162;2022-08-18T11:22:47;9.60;;;9.10;;
291;SDS011;23311;48.776;9.162;2022-08-18T11:25:18;9.83;;;9.33;;
291;SDS011;23311;48.776;9.162;2022-08-18T11:27:55;10.80;;;10.20;;
291;SDS011;23311;48.776;9.162;2022-08-18T11:30:24;10.80;;;10.20;;
291;SDS011;23311;48.776;9.162;2022-08-18T11:32:56;10.63;;;10.03;;
291;SDS011;23311;48.776;9.162;2022-08-18T11:35:29;10.83;;;10.23;;
291;SDS011;23311;48.776;9.162;2022-08-18T11:38:00;10.60;;;10.00;;
291;SDS011;23311;48.776;9.162;2022-08-18T11:40:31;9.40;;;8.90;;
291;SDS011;23311;48.776;9.162;2022-08-18T11:43:25;9.80;;;9.30;;
291;SDS011;23311;48.776;9.162;2022-08-18T11:46:11;9.20;;;8.70;;
291;SDS011;23311;48.776;9.162;2022-08-18T11:48:43;10.33;;;9.83;;
291;SDS011;23311;48.776;9.162;2022-08-18T11:51:19;10.17;;;9.67;;
291;SDS011;23311;48.776;9.162;2022-08-18T11:53:51;10.33;;;9.73;;
291;SDS011;23311;48.776;9.162;2022-08-18T11:56:26;11.50;;;10.90;;
291;SDS011;23311;48.776;9.162;2022-08-18T11:58:59;11.30;;;10.70;;
291;SDS011;23311;48.776;9.162;2022-08-18T12:01:30;10.20;;;9.70;;
291;SDS011;23311;48.776;9.162;2022-08-18T12:04:08;9.57;;;9.07;;
291;SDS011;23311;48.776;9.162;2022-08-18T12:06:53;10.40;;;9.90;;
291;SDS011;23311;48.776;9.162;2022-08-18T12:09:35;11.27;;;10.67;;
291;SDS011;23311;48.776;9.162;2022-08-18T12:12:26;11.20;;;10.60;;
291;SDS011;23311;48.776;9.162;2022-08-18T12:14:58;9.73;;;9.23;;
291;SDS011;23311;48.776;9.162;2022-08-18T12:17:42;10.10;;;9.60;;
291;SDS011;23311;48.776;9.162;2022-08-18T12:20:18;9.50;;;9.00;;
291;SDS011;23311;48.776;9.162;2022-08-18T12:22:48;10.67;;;10.10;;
291;SDS011;23311;48.776;9.162;2022-08-18T12:25:17;9.73;;;9.23;;
291;SDS011;23311;48.776;9.162;2022-08-18T12:27:50;10.10;;;9.60;;
291;SDS011;23311;48.776;9.162;2022-08-18T12:30:20;9.40;;;8.90;;
291;SDS011;23311;48.776;9.162;2022-08-18T12:32:49;10.27;;;9.77;;
291;SDS011;23311;48.776;9.162;2022-08-18T12:35:21;10.50;;;9.10;;
291;SDS011;23311;48.776;9.162;2022-08-18T12:37:50;9.50;;;9.00;;
291;SDS011;23311;48.776;9.162;2022-08-18T12:40:38;8.43;;;7.97;;
291;SDS011;23311;48.776;9.162;2022-08-18T12:43:06;8.10;;;7.70;;
291;SDS011;23311;48.776;9.162;2022-08-18T12:45:37;8.60;;;8.10;;
291;SDS011;23311;48.776;9.162;2022-08-18T12:48:06;7.70;;;7.30;;
291;SDS011;23311;48.776;9.162;2022-08-18T12:50:36;8.60;;;8.10;;
291;SDS011;23311;48.776;9.162;2022-08-18T12:53:21;9.60;;;9.10;;
291;SDS011;23311;48.776;9.162;2022-08-18T12:56:04;8.03;;;7.63;;
291;SDS011;23311;48.776;9.162;2022-08-18T12:58:53;9.27;;;8.77;;
291;SDS011;23311;48.776;9.162;2022-08-18T13:01:23;9.93;;;9.43;;
291;SDS011;23311;48.776;9.162;2022-08-18T13:03:52;8.47;;;8.00;;
291;SDS011;23311;48.776;9.162;2022-08-18T13:06:43;8.93;;;8.43;;
291;SDS011;23311;48.776;9.162;2022-08-18T13:09:29;9.43;;;8.93;;
291;SDS011;23311;48.776;9.162;2022-08-18T13:12:18;9.93;;;9.43;;
291;SDS011;23311;48.776;9.162;2022-08-18T13:14:47;8.60;;;8.10;;
291;SDS011;23311;48.776;9.162;2022-08-18T13:17:18;9.83;;;9.33;;
291;SDS011;23311;48.776;9.162;2022-08-18T13:20:00;9.37;;;8.87;;
291;SDS011;23311;48.776;9.162;2022-08-18T13:22:30;9.00;;;8.50;;
291;SDS011;23311;48.776;9.162;2022-08-18T13:24:59;9.07;;;8.57;;
291;SDS011;23311;48.776;9.162;2022-08-18T13:27:29;9.27;;;8.77;;
291;SDS011;23311;48.776;9.162;2022-08-18T13:30:00;9.03;;;8.53;;
291;SDS011;23311;48.776;9.162;2022-08-18T13:32:50;8.90;;;8.40;;
291;SDS011;23311;48.776;9.162;2022-08-18T13:35:27;9.10;;;8.60;;
291;SDS011;23311;48.776;9.162;2022-08-18T13:38:09;10.03;;;9.27;;
291;SDS011;23311;48.776;9.162;2022-08-18T13:40:44;9.63;;;9.13;;
291;SDS011;23311;48.776;9.162;2022-08-18T13:43:14;9.67;;;9.17;;
291;SDS011;23311;48.776;9.162;2022-08-18T13:45:43;10.53;;;9.97;;
291;SDS011;23311;48.776;9.162;2022-08-18T13:48:20;10.27;;;9.77;;
291;SDS011;23311;48.776;9.162;2022-08-18T13:50:49;10.27;;;9.77;;
291;SDS011;23311;48.776;9.162;2022-08-18T13:53:21;9.37;;;8.87;;
291;SDS011;23311;48.776;9.162;2022-08-18T13:55:51;8.13;;;7.73;;
291;SDS011;23311;48.776;9.162;2022-08-18T13:58:20;8.60;;;8.10;;
291;SDS011;23311;48.776;9.162;2022-08-18T14:00:48;8.33;;;7.90;;
291;SDS011;23311;48.776;9.162;2022-08-18T14:03:20;8.00;;;7.60;;
291;SDS011;23311;48.776;9.162;2022-08-18T14:06:08;7.40;;;7.00;;
291;SDS011;23311;48.776;9.162;2022-08-18T14:08:39;8.37;;;7.93;;
291;SDS011;23311;48.776;9.162;2022-08-18T14:11:07;7.90;;;7.50;;
291;SDS011;23311;48.776;9.162;2022-08-18T14:13:36;8.93;;;8.43;;
291;SDS011;23311;48.776;9.162;2022-08-18T14:16:09;8.57;;;7.83;;
291;SDS011;23311;48.776;9.162;2022-08-18T14:18:46;8.27;;;7.87;;
291;SDS011;23311;48.776;9.162;2022-08-18T14:21:35;7.77;;;7.37;;
291;SDS011;23311;48.776;9.162;2022-08-18T14:24:26;8.57;;;7.40;;
291;SDS011;23311;48.776;9.162;2022-08-18T14:27:17;7.90;;;7.50;;
291;SDS011;23311;48.776;9.162;2022-08-18T14:29:45;7.93;;;7.53;;
291;SDS011;23311;48.776;9.162;2022-08-18T14:32:17;8.73;;;8.23;;
291;SDS011;23311;48.776;9.162;2022-08-18T14:34:56;7.60;;;7.20;;
291;SDS011;23311;48.776;9.162;2022-08-18T14:37:45;7.97;;;7.57;;
291;SDS011;23311;48.776;9.162;2022-08-18T14:40:14;7.70;;;7.30;;
291;SDS011;23311;48.776;9.162;2022-08-18T14:42:42;8.23;;;7.83;;
291;SDS011;23311;48.776;9.162;2022-08-18T14:45:20;8.33;;;7.80;;
291;SDS011;23311;48.776;9.162;2022-08-18T14:48:00;7.83;;;7.43;;
291;SDS011;23311;48.776;9.162;2022-08-18T14:50:34;7.60;;;7.20;;
291;SDS011;23311;48.776;9.162;2022-08-18T14:53:03;7.77;;;7.37;;
291;SDS011;23311;48.776;9.162;2022-08-18T14:55:31;7.80;;;7.40;;
291;SDS011;23311;48.776;9.162;2022-08-18T14:58:01;8.73;;;8.23;;
291;SDS011;23311;48.776;9.162;2022-08-18T15:00:32;7.40;;;7.00;;
291;SDS011;23311;48.776;9.162;2022-08-18T15:03:19;8.17;;;7.77;;
291;SDS011;23311;48.776;9.162;2022-08-18T15:05:58;8.13;;;7.77;;
291;SDS011;23311;48.776;9.162;2022-08-18T15:08:30;8.57;;;8.07;;
291;SDS011;23311;48.776;9.162;2022-08-18T15:11:01;7.90;;;7.50;;
291;SDS011;23311;48.776;9.162;2022-08-18T15:13:37;7.90;;;7.50;;
291;SDS011;23311;48.776;9.162;2022-08-18T15:16:07;7.73;;;7.33;;
291;SDS011;23311;48.776;9.162;2022-08-18T15:18:38;8.03;;;7.63;;
291;SDS011;23311;48.776;9.162;2022-08-18T15:21:08;8.07;;;7.67;;
291;SDS011;23311;48.776;9.162;2022-08-18T15:24:04;9.53;;;7.40;;
291;SDS011;23311;48.776;9.162;2022-08-18T15:26:51;6.80;;;6.40;;
291;SDS011;23311;48.776;9.162;2022-08-18T15:29:24;8.13;;;7.73;;
291;SDS011;23311;48.776;9.162;2022-08-18T15:31:55;7.43;;;7.03;;
291;SDS011;23311;48.776;9.162;2022-08-18T15:34:31;8.10;;;7.70;;
291;SDS011;23311;48.776;9.162;2022-08-18T15:37:14;7.87;;;7.47;;
291;SDS011;23311;48.776;9.162;2022-08-18T15:39:46;7.70;;;7.30;;
291;SDS011;23311;48.776;9.162;2022-08-18T15:42:24;8.00;;;7.60;;
291;SDS011;23311;48.776;9.162;2022-08-18T15:44:52;7.70;;;7.30;;
291;SDS011;23311;48.776;9.162;2022-08-18T15:47:22;7.10;;;6.70;;
291;SDS011;23311;48.776;9.162;2022-08-18T15:49:50;8.67;;;8.17;;
291;SDS011;23311;48.776;9.162;2022-08-18T15:52:22;8.47;;;8.00;;
291;SDS011;23311;48.776;9.162;2022-08-18T15:54:51;7.80;;;7.40;;
291;SDS011;23311;48.776;9.162;2022-08-18T15:57:23;8.20;;;7.60;;
291;SDS011;23311;48.776;9.162;2022-08-18T16:00:07;7.90;;;7.50;;
291;SDS011;23311;48.776;9.162;2022-08-18T16:02:38;7.83;;;7.40;;
291;SDS011;23311;48.776;9.162;2022-08-18T16:05:14;7.60;;;7.20;;
291;SDS011;23311;48.776;9.162;2022-08-18T16:07:44;8.13;;;7.73;;
291;SDS011;23311;48.776;9.162;2022-08-18T16:10:13;8.07;;;7.67;;
291;SDS011;23311;48.776;9.162;2022-08-18T16:12:43;7.50;;;7.10;;
291;SDS011;23311;48.776;9.162;2022-08-18T16:15:12;7.40;;;7.00;;
291;SDS011;23311;48.776;9.162;2022-08-18T16:17:47;7.70;;;7.30;;
291;SDS011;23311;48.776;9.162;2022-08-18T16:20:17;7.40;;;7.00;;
291;SDS011;23311;48.776;9.162;2022-08-18T16:22:47;7.57;;;7.17;;
291;SDS011;23311;48.776;9.162;2022-08-18T16:25:15;7.70;;;7.30;;
291;SDS011;23311;48.776;9.162;2022-08-18T16:27:44;7.60;;;6.93;;
291;SDS011;23311;48.776;9.162;2022-08-18T16:30:14;7.60;;;7.20;;
291;SDS011;23311;48.776;9.162;2022-08-18T16:32:44;7.30;;;6.90;;
291;SDS011;23311;48.776;9.162;2022-08-18T16:35:12;7.80;;;7.40;;
291;SDS011;23311;48.776;9.162;2022-08-18T16:37:41;6.90;;;6.50;;